Vanguard, Canada
Current Conditions -  °F | °C
As of 1:00 PM on Saturday 25 Oct 2014 (Local Time) from CYYN Reporting Station
Broken Clouds Broken Clouds  
Wind Chill: 55°   Ceiling: 21000
Heat Index: 55°   Visibility: 9mi
Dew Point: 25°   Wind: 10mph
Humidity: 31%   Direction: 180°S
Pressure: 29.96"   Gusts: NA
Location:  49.9°N, 107.3°W
Report Text: CYYN 251900Z AUTO 18009KT 9SM SCT065 BKN210 BKN240 13/M04 A2996 RMK SLP163 DENSITY ALT 2900FT
Loading
Personal Weather Stations






























Interactive Weather Map
Tropical Storm Tracking
New forecast layout! Learn more

10-Day Weather Forecast

Advertisements
Track Severe Weather on mobile